sensor_id;sensor_type;location;lat;lon;timestamp;temperature;humidity
34249;DHT22;20508;50.834;3.160;2022-11-20T00:01:54;16.50;53.70
34249;DHT22;20508;50.834;3.160;2022-11-20T00:04:19;16.50;53.70
34249;DHT22;20508;50.834;3.160;2022-11-20T00:06:46;16.50;53.60
34249;DHT22;20508;50.834;3.160;2022-11-20T00:09:12;16.50;54.10
34249;DHT22;20508;50.834;3.160;2022-11-20T00:11:38;16.50;53.50
34249;DHT22;20508;50.834;3.160;2022-11-20T00:14:03;16.50;53.50
34249;DHT22;20508;50.834;3.160;2022-11-20T00:16:32;16.50;53.50
34249;DHT22;20508;50.834;3.160;2022-11-20T00:18:58;16.50;53.40
34249;DHT22;20508;50.834;3.160;2022-11-20T00:21:26;16.50;53.40
34249;DHT22;20508;50.834;3.160;2022-11-20T00:23:54;16.60;53.40
34249;DHT22;20508;50.834;3.160;2022-11-20T00:26:25;16.60;53.30
34249;DHT22;20508;50.834;3.160;2022-11-20T00:28:53;16.60;53.20
34249;DHT22;20508;50.834;3.160;2022-11-20T00:31:20;16.60;53.20
34249;DHT22;20508;50.834;3.160;2022-11-20T00:33:46;16.60;53.10
34249;DHT22;20508;50.834;3.160;2022-11-20T00:36:15;16.60;53.10
34249;DHT22;20508;50.834;3.160;2022-11-20T00:38:41;16.70;53.00
34249;DHT22;20508;50.834;3.160;2022-11-20T00:41:10;16.70;53.00
34249;DHT22;20508;50.834;3.160;2022-11-20T00:43:37;16.70;53.00
34249;DHT22;20508;50.834;3.160;2022-11-20T00:46:15;16.70;53.00
34249;DHT22;20508;50.834;3.160;2022-11-20T00:48:41;16.70;52.90
34249;DHT22;20508;50.834;3.160;2022-11-20T00:51:07;16.70;53.10
34249;DHT22;20508;50.834;3.160;2022-11-20T00:53:33;16.70;53.00
34249;DHT22;20508;50.834;3.160;2022-11-20T00:56:05;16.70;53.00
34249;DHT22;20508;50.834;3.160;2022-11-20T00:58:33;16.70;53.00
34249;DHT22;20508;50.834;3.160;2022-11-20T01:01:21;16.70;52.90
34249;DHT22;20508;50.834;3.160;2022-11-20T01:03:50;16.70;52.80
34249;DHT22;20508;50.834;3.160;2022-11-20T01:06:19;16.60;53.00
34249;DHT22;20508;50.834;3.160;2022-11-20T01:08:47;16.60;53.00
34249;DHT22;20508;50.834;3.160;2022-11-20T01:11:20;16.60;53.00
34249;DHT22;20508;50.834;3.160;2022-11-20T01:13:49;16.60;53.10
34249;DHT22;20508;50.834;3.160;2022-11-20T01:16:21;16.60;53.10
34249;DHT22;20508;50.834;3.160;2022-11-20T01:18:49;16.60;53.10
34249;DHT22;20508;50.834;3.160;2022-11-20T01:21:18;16.50;53.20
34249;DHT22;20508;50.834;3.160;2022-11-20T01:23:45;16.50;53.20
34249;DHT22;20508;50.834;3.160;2022-11-20T01:26:17;16.50;53.20
34249;DHT22;20508;50.834;3.160;2022-11-20T01:28:43;16.50;53.30
34249;DHT22;20508;50.834;3.160;2022-11-20T01:31:20;16.50;53.40
34249;DHT22;20508;50.834;3.160;2022-11-20T01:33:47;16.50;53.40
34249;DHT22;20508;50.834;3.160;2022-11-20T01:36:15;16.50;53.40
34249;DHT22;20508;50.834;3.160;2022-11-20T01:38:41;16.50;53.40
34249;DHT22;20508;50.834;3.160;2022-11-20T01:41:08;16.50;53.40
34249;DHT22;20508;50.834;3.160;2022-11-20T01:43:34;16.50;53.30
34249;DHT22;20508;50.834;3.160;2022-11-20T01:46:17;16.50;53.20
34249;DHT22;20508;50.834;3.160;2022-11-20T01:51:42;16.50;53.10
34249;DHT22;20508;50.834;3.160;2022-11-20T01:54:16;16.50;53.20
34249;DHT22;20508;50.834;3.160;2022-11-20T01:56:44;16.50;53.20
34249;DHT22;20508;50.834;3.160;2022-11-20T01:59:14;16.50;53.20
34249;DHT22;20508;50.834;3.160;2022-11-20T02:01:41;16.60;53.30
34249;DHT22;20508;50.834;3.160;2022-11-20T02:04:08;16.50;53.30
34249;DHT22;20508;50.834;3.160;2022-11-20T02:06:42;16.50;53.30
34249;DHT22;20508;50.834;3.160;2022-11-20T02:09:10;16.50;53.30
34249;DHT22;20508;50.834;3.160;2022-11-20T02:11:36;16.50;53.40
34249;DHT22;20508;50.834;3.160;2022-11-20T02:14:03;16.40;53.30
34249;DHT22;20508;50.834;3.160;2022-11-20T02:16:35;16.40;53.30
34249;DHT22;20508;50.834;3.160;2022-11-20T02:19:04;16.50;53.40
34249;DHT22;20508;50.834;3.160;2022-11-20T02:21:46;16.40;53.40
34249;DHT22;20508;50.834;3.160;2022-11-20T02:24:14;16.50;53.40
34249;DHT22;20508;50.834;3.160;2022-11-20T02:26:50;16.40;53.40
34249;DHT22;20508;50.834;3.160;2022-11-20T02:29:23;16.40;53.60
34249;DHT22;20508;50.834;3.160;2022-11-20T02:31:49;16.40;53.50
34249;DHT22;20508;50.834;3.160;2022-11-20T02:34:14;16.40;53.50
34249;DHT22;20508;50.834;3.160;2022-11-20T02:36:41;16.40;53.60
34249;DHT22;20508;50.834;3.160;2022-11-20T02:39:09;16.40;53.50
34249;DHT22;20508;50.834;3.160;2022-11-20T02:41:38;16.40;53.40
34249;DHT22;20508;50.834;3.160;2022-11-20T02:44:05;16.50;53.40
34249;DHT22;20508;50.834;3.160;2022-11-20T02:46:31;16.50;53.30
34249;DHT22;20508;50.834;3.160;2022-11-20T02:48:58;16.40;53.30
34249;DHT22;20508;50.834;3.160;2022-11-20T02:51:24;16.40;53.30
34249;DHT22;20508;50.834;3.160;2022-11-20T02:53:49;16.40;53.30
34249;DHT22;20508;50.834;3.160;2022-11-20T02:56:16;16.40;53.30
34249;DHT22;20508;50.834;3.160;2022-11-20T02:58:42;16.40;53.30
34249;DHT22;20508;50.834;3.160;2022-11-20T03:01:08;16.40;53.40
34249;DHT22;20508;50.834;3.160;2022-11-20T03:03:34;16.40;53.40
34249;DHT22;20508;50.834;3.160;2022-11-20T03:06:00;16.40;53.40
34249;DHT22;20508;50.834;3.160;2022-11-20T03:08:26;16.40;53.50
34249;DHT22;20508;50.834;3.160;2022-11-20T03:10:52;16.40;53.40
34249;DHT22;20508;50.834;3.160;2022-11-20T03:13:18;16.40;53.50
34249;DHT22;20508;50.834;3.160;2022-11-20T03:15:44;16.40;53.40
34249;DHT22;20508;50.834;3.160;2022-11-20T03:18:10;16.40;53.40
34249;DHT22;20508;50.834;3.160;2022-11-20T03:20:35;16.40;53.30
34249;DHT22;20508;50.834;3.160;2022-11-20T03:23:02;16.40;53.20
34249;DHT22;20508;50.834;3.160;2022-11-20T03:25:28;16.50;53.20
34249;DHT22;20508;50.834;3.160;2022-11-20T03:27:54;16.50;53.20
34249;DHT22;20508;50.834;3.160;2022-11-20T03:30:20;16.50;53.20
34249;DHT22;20508;50.834;3.160;2022-11-20T03:32:47;16.50;53.20
34249;DHT22;20508;50.834;3.160;2022-11-20T03:35:13;16.50;53.20
34249;DHT22;20508;50.834;3.160;2022-11-20T03:37:39;16.50;53.20
34249;DHT22;20508;50.834;3.160;2022-11-20T03:40:06;16.40;53.10
34249;DHT22;20508;50.834;3.160;2022-11-20T03:42:33;16.40;53.20
34249;DHT22;20508;50.834;3.160;2022-11-20T03:45:12;16.40;53.10
34249;DHT22;20508;50.834;3.160;2022-11-20T03:47:38;16.40;53.20
34249;DHT22;20508;50.834;3.160;2022-11-20T03:50:05;16.40;53.20
34249;DHT22;20508;50.834;3.160;2022-11-20T03:52:31;16.40;53.20
34249;DHT22;20508;50.834;3.160;2022-11-20T03:54:57;16.30;53.20
34249;DHT22;20508;50.834;3.160;2022-11-20T03:57:23;16.30;53.30
34249;DHT22;20508;50.834;3.160;2022-11-20T03:59:49;16.40;53.30
34249;DHT22;20508;50.834;3.160;2022-11-20T04:02:15;16.30;53.30
34249;DHT22;20508;50.834;3.160;2022-11-20T04:04:41;16.40;53.30
34249;DHT22;20508;50.834;3.160;2022-11-20T04:07:06;16.40;53.30
34249;DHT22;20508;50.834;3.160;2022-11-20T04:09:32;16.40;53.20
34249;DHT22;20508;50.834;3.160;2022-11-20T04:11:58;16.40;53.10
34249;DHT22;20508;50.834;3.160;2022-11-20T04:14:24;16.40;53.10
34249;DHT22;20508;50.834;3.160;2022-11-20T04:16:50;16.40;53.00
34249;DHT22;20508;50.834;3.160;2022-11-20T04:19:16;16.50;53.00
34249;DHT22;20508;50.834;3.160;2022-11-20T04:21:43;16.40;53.00
34249;DHT22;20508;50.834;3.160;2022-11-20T04:24:09;16.40;52.90
34249;DHT22;20508;50.834;3.160;2022-11-20T04:26:36;16.50;53.00
34249;DHT22;20508;50.834;3.160;2022-11-20T04:29:03;16.50;53.00
34249;DHT22;20508;50.834;3.160;2022-11-20T04:31:31;16.50;52.90
34249;DHT22;20508;50.834;3.160;2022-11-20T04:34:05;16.50;52.80
34249;DHT22;20508;50.834;3.160;2022-11-20T04:36:32;16.50;52.70
34249;DHT22;20508;50.834;3.160;2022-11-20T04:39:00;16.50;52.70
34249;DHT22;20508;50.834;3.160;2022-11-20T04:41:28;16.50;52.60
34249;DHT22;20508;50.834;3.160;2022-11-20T04:43:57;16.60;52.60
34249;DHT22;20508;50.834;3.160;2022-11-20T04:46:26;16.60;52.60
34249;DHT22;20508;50.834;3.160;2022-11-20T04:48:53;16.50;52.60
34249;DHT22;20508;50.834;3.160;2022-11-20T04:51:19;16.50;52.60
34249;DHT22;20508;50.834;3.160;2022-11-20T04:53:44;16.50;52.70
34249;DHT22;20508;50.834;3.160;2022-11-20T04:56:12;16.50;52.60
34249;DHT22;20508;50.834;3.160;2022-11-20T04:58:39;16.50;52.60
34249;DHT22;20508;50.834;3.160;2022-11-20T05:01:06;16.50;52.60
34249;DHT22;20508;50.834;3.160;2022-11-20T05:03:32;16.50;52.60
34249;DHT22;20508;50.834;3.160;2022-11-20T05:06:03;16.50;52.60
34249;DHT22;20508;50.834;3.160;2022-11-20T05:08:30;16.60;52.60
34249;DHT22;20508;50.834;3.160;2022-11-20T05:11:17;16.50;52.70
34249;DHT22;20508;50.834;3.160;2022-11-20T05:13:43;16.60;52.60
34249;DHT22;20508;50.834;3.160;2022-11-20T05:16:14;16.50;52.80
34249;DHT22;20508;50.834;3.160;2022-11-20T05:18:40;16.50;52.80
34249;DHT22;20508;50.834;3.160;2022-11-20T05:21:07;16.40;52.80
34249;DHT22;20508;50.834;3.160;2022-11-20T05:23:33;16.40;52.90
34249;DHT22;20508;50.834;3.160;2022-11-20T05:25:59;16.40;52.90
34249;DHT22;20508;50.834;3.160;2022-11-20T05:28:28;16.40;52.90
34249;DHT22;20508;50.834;3.160;2022-11-20T05:30:54;16.40;53.00
34249;DHT22;20508;50.834;3.160;2022-11-20T05:33:20;16.40;53.00
34249;DHT22;20508;50.834;3.160;2022-11-20T05:35:46;16.40;53.00
34249;DHT22;20508;50.834;3.160;2022-11-20T05:38:12;16.40;53.00
34249;DHT22;20508;50.834;3.160;2022-11-20T05:40:38;16.40;53.10
34249;DHT22;20508;50.834;3.160;2022-11-20T05:43:04;16.40;53.00
34249;DHT22;20508;50.834;3.160;2022-11-20T05:45:30;16.40;53.00
34249;DHT22;20508;50.834;3.160;2022-11-20T05:47:59;16.40;53.00
34249;DHT22;20508;50.834;3.160;2022-11-20T05:50:26;16.40;52.90
34249;DHT22;20508;50.834;3.160;2022-11-20T05:52:52;16.40;52.90
34249;DHT22;20508;50.834;3.160;2022-11-20T05:55:18;16.40;52.90
34249;DHT22;20508;50.834;3.160;2022-11-20T05:57:44;16.40;52.90
34249;DHT22;20508;50.834;3.160;2022-11-20T06:00:10;16.40;52.80
34249;DHT22;20508;50.834;3.160;2022-11-20T06:02:36;16.40;52.90
34249;DHT22;20508;50.834;3.160;2022-11-20T06:05:02;16.40;52.90
34249;DHT22;20508;50.834;3.160;2022-11-20T06:07:28;16.40;53.00
34249;DHT22;20508;50.834;3.160;2022-11-20T06:09:54;16.40;53.00
34249;DHT22;20508;50.834;3.160;2022-11-20T06:12:20;16.40;53.00
34249;DHT22;20508;50.834;3.160;2022-11-20T06:14:46;16.30;53.00
34249;DHT22;20508;50.834;3.160;2022-11-20T06:17:12;16.30;53.10
34249;DHT22;20508;50.834;3.160;2022-11-20T06:19:38;16.40;53.10
34249;DHT22;20508;50.834;3.160;2022-11-20T06:22:04;16.30;53.10
34249;DHT22;20508;50.834;3.160;2022-11-20T06:24:30;16.30;53.10
34249;DHT22;20508;50.834;3.160;2022-11-20T06:26:56;16.30;53.20
34249;DHT22;20508;50.834;3.160;2022-11-20T06:29:23;16.30;53.20
34249;DHT22;20508;50.834;3.160;2022-11-20T06:31:49;16.30;53.20
34249;DHT22;20508;50.834;3.160;2022-11-20T06:34:15;16.30;53.10
34249;DHT22;20508;50.834;3.160;2022-11-20T06:36:41;16.40;53.20
34249;DHT22;20508;50.834;3.160;2022-11-20T06:39:07;16.40;53.10
34249;DHT22;20508;50.834;3.160;2022-11-20T06:41:32;16.40;53.10
34249;DHT22;20508;50.834;3.160;2022-11-20T06:43:59;16.40;53.10
34249;DHT22;20508;50.834;3.160;2022-11-20T06:46:24;16.40;53.00
34249;DHT22;20508;50.834;3.160;2022-11-20T06:48:50;16.40;53.00
34249;DHT22;20508;50.834;3.160;2022-11-20T06:51:16;16.40;53.00
34249;DHT22;20508;50.834;3.160;2022-11-20T06:53:43;16.40;53.00
34249;DHT22;20508;50.834;3.160;2022-11-20T06:56:08;16.40;53.10
34249;DHT22;20508;50.834;3.160;2022-11-20T06:58:35;16.30;53.10
34249;DHT22;20508;50.834;3.160;2022-11-20T07:01:04;16.30;53.00
34249;DHT22;20508;50.834;3.160;2022-11-20T07:03:30;16.40;53.20
34249;DHT22;20508;50.834;3.160;2022-11-20T07:05:57;16.30;53.10
34249;DHT22;20508;50.834;3.160;2022-11-20T07:08:24;16.30;53.20
34249;DHT22;20508;50.834;3.160;2022-11-20T07:10:50;16.30;53.20
34249;DHT22;20508;50.834;3.160;2022-11-20T07:13:16;16.30;53.30
34249;DHT22;20508;50.834;3.160;2022-11-20T07:15:42;16.30;53.30
34249;DHT22;20508;50.834;3.160;2022-11-20T07:18:08;16.30;53.40
34249;DHT22;20508;50.834;3.160;2022-11-20T07:20:34;16.30;53.30
34249;DHT22;20508;50.834;3.160;2022-11-20T07:22:59;16.30;53.30
34249;DHT22;20508;50.834;3.160;2022-11-20T07:25:26;16.40;53.30
34249;DHT22;20508;50.834;3.160;2022-11-20T07:27:56;16.30;53.20
34249;DHT22;20508;50.834;3.160;2022-11-20T07:30:22;16.30;53.20
34249;DHT22;20508;50.834;3.160;2022-11-20T07:32:51;16.30;53.20
34249;DHT22;20508;50.834;3.160;2022-11-20T07:35:18;16.40;53.10
34249;DHT22;20508;50.834;3.160;2022-11-20T07:37:44;16.30;53.10
34249;DHT22;20508;50.834;3.160;2022-11-20T07:40:12;16.40;53.20
34249;DHT22;20508;50.834;3.160;2022-11-20T07:42:38;16.30;53.10
34249;DHT22;20508;50.834;3.160;2022-11-20T07:45:05;16.30;53.20
34249;DHT22;20508;50.834;3.160;2022-11-20T07:47:37;16.30;53.20
34249;DHT22;20508;50.834;3.160;2022-11-20T07:50:02;16.30;53.20
34249;DHT22;20508;50.834;3.160;2022-11-20T07:52:29;16.30;53.30
34249;DHT22;20508;50.834;3.160;2022-11-20T07:54:54;16.30;53.40
34249;DHT22;20508;50.834;3.160;2022-11-20T07:57:20;16.30;53.40
34249;DHT22;20508;50.834;3.160;2022-11-20T07:59:47;16.30;53.40
34249;DHT22;20508;50.834;3.160;2022-11-20T08:02:12;16.30;53.50
34249;DHT22;20508;50.834;3.160;2022-11-20T08:04:39;16.30;53.50
34249;DHT22;20508;50.834;3.160;2022-11-20T08:07:05;16.30;53.50
34249;DHT22;20508;50.834;3.160;2022-11-20T08:09:31;16.30;53.50
34249;DHT22;20508;50.834;3.160;2022-11-20T08:11:58;16.30;53.50
34249;DHT22;20508;50.834;3.160;2022-11-20T08:14:42;16.30;53.50
34249;DHT22;20508;50.834;3.160;2022-11-20T08:17:08;16.30;53.50
34249;DHT22;20508;50.834;3.160;2022-11-20T08:19:34;16.30;53.40
34249;DHT22;20508;50.834;3.160;2022-11-20T08:21:59;16.30;53.40
34249;DHT22;20508;50.834;3.160;2022-11-20T08:24:25;16.40;53.40
34249;DHT22;20508;50.834;3.160;2022-11-20T08:26:52;16.40;53.30
34249;DHT22;20508;50.834;3.160;2022-11-20T08:29:18;16.40;53.30
34249;DHT22;20508;50.834;3.160;2022-11-20T08:31:44;16.40;53.30
34249;DHT22;20508;50.834;3.160;2022-11-20T08:34:10;16.40;53.20
34249;DHT22;20508;50.834;3.160;2022-11-20T08:36:36;16.40;53.20
34249;DHT22;20508;50.834;3.160;2022-11-20T08:39:03;16.40;53.10
34249;DHT22;20508;50.834;3.160;2022-11-20T08:41:29;16.50;53.10
34249;DHT22;20508;50.834;3.160;2022-11-20T08:44:03;16.50;53.10
34249;DHT22;20508;50.834;3.160;2022-11-20T08:46:38;16.50;53.00
34249;DHT22;20508;50.834;3.160;2022-11-20T08:49:05;16.50;53.00
34249;DHT22;20508;50.834;3.160;2022-11-20T08:51:31;16.50;53.10
34249;DHT22;20508;50.834;3.160;2022-11-20T08:53:57;16.40;53.10
34249;DHT22;20508;50.834;3.160;2022-11-20T08:56:24;16.40;53.10
34249;DHT22;20508;50.834;3.160;2022-11-20T08:58:51;16.40;53.20
34249;DHT22;20508;50.834;3.160;2022-11-20T09:01:20;16.40;53.20
34249;DHT22;20508;50.834;3.160;2022-11-20T09:03:47;16.40;53.20
34249;DHT22;20508;50.834;3.160;2022-11-20T09:06:14;16.50;53.30
34249;DHT22;20508;50.834;3.160;2022-11-20T09:08:40;16.50;53.20
34249;DHT22;20508;50.834;3.160;2022-11-20T09:11:07;16.50;53.20
34249;DHT22;20508;50.834;3.160;2022-11-20T09:13:34;16.50;53.20
34249;DHT22;20508;50.834;3.160;2022-11-20T09:16:02;16.50;53.20
34249;DHT22;20508;50.834;3.160;2022-11-20T09:18:30;16.40;53.20
34249;DHT22;20508;50.834;3.160;2022-11-20T09:21:02;16.40;53.20
34249;DHT22;20508;50.834;3.160;2022-11-20T09:23:32;16.50;53.30
34249;DHT22;20508;50.834;3.160;2022-11-20T09:26:05;16.40;53.30
34249;DHT22;20508;50.834;3.160;2022-11-20T09:28:32;16.40;53.40
34249;DHT22;20508;50.834;3.160;2022-11-20T09:30:59;16.40;53.50
34249;DHT22;20508;50.834;3.160;2022-11-20T09:33:24;16.40;53.50
34249;DHT22;20508;50.834;3.160;2022-11-20T09:35:50;16.40;53.50
34249;DHT22;20508;50.834;3.160;2022-11-20T09:38:16;16.40;53.60
34249;DHT22;20508;50.834;3.160;2022-11-20T09:40:57;16.40;53.60
34249;DHT22;20508;50.834;3.160;2022-11-20T09:43:32;16.40;53.60
34249;DHT22;20508;50.834;3.160;2022-11-20T09:46:08;16.30;53.60
34249;DHT22;20508;50.834;3.160;2022-11-20T09:48:49;16.30;53.70
34249;DHT22;20508;50.834;3.160;2022-11-20T09:51:46;16.30;53.70
34249;DHT22;20508;50.834;3.160;2022-11-20T09:54:21;16.40;53.60
34249;DHT22;20508;50.834;3.160;2022-11-20T09:56:53;16.40;53.70
34249;DHT22;20508;50.834;3.160;2022-11-20T09:59:42;16.40;53.70
34249;DHT22;20508;50.834;3.160;2022-11-20T10:02:27;16.40;53.60
34249;DHT22;20508;50.834;3.160;2022-11-20T10:05:10;16.40;53.60
34249;DHT22;20508;50.834;3.160;2022-11-20T10:07:55;16.40;53.60
34249;DHT22;20508;50.834;3.160;2022-11-20T10:13:30;16.40;53.80
34249;DHT22;20508;50.834;3.160;2022-11-20T10:16:11;16.40;53.60
34249;DHT22;20508;50.834;3.160;2022-11-20T10:19:00;16.30;53.80
34249;DHT22;20508;50.834;3.160;2022-11-20T10:29:51;16.30;53.80
34249;DHT22;20508;50.834;3.160;2022-11-20T10:32:20;16.30;54.10
34249;DHT22;20508;50.834;3.160;2022-11-20T10:35:06;16.30;54.10
34249;DHT22;20508;50.834;3.160;2022-11-20T10:37:38;16.30;54.00
34249;DHT22;20508;50.834;3.160;2022-11-20T10:40:38;16.30;54.10
34249;DHT22;20508;50.834;3.160;2022-11-20T10:43:16;16.30;53.90
34249;DHT22;20508;50.834;3.160;2022-11-20T10:56:19;16.40;54.00
34249;DHT22;20508;50.834;3.160;2022-11-20T10:58:52;16.40;54.00
34249;DHT22;20508;50.834;3.160;2022-11-20T11:01:21;16.30;54.00
34249;DHT22;20508;50.834;3.160;2022-11-20T11:03:49;16.30;54.10
34249;DHT22;20508;50.834;3.160;2022-11-20T11:06:46;16.40;54.10
34249;DHT22;20508;50.834;3.160;2022-11-20T11:09:22;16.40;54.10
34249;DHT22;20508;50.834;3.160;2022-11-20T11:11:52;16.30;54.20
34249;DHT22;20508;50.834;3.160;2022-11-20T11:14:18;16.30;54.30
34249;DHT22;20508;50.834;3.160;2022-11-20T11:16:55;16.30;54.30
34249;DHT22;20508;50.834;3.160;2022-11-20T11:19:22;16.40;54.30
34249;DHT22;20508;50.834;3.160;2022-11-20T11:21:55;16.30;54.50
34249;DHT22;20508;50.834;3.160;2022-11-20T11:24:29;16.30;54.40
34249;DHT22;20508;50.834;3.160;2022-11-20T11:27:01;16.30;54.50
34249;DHT22;20508;50.834;3.160;2022-11-20T11:29:31;16.30;54.40
34249;DHT22;20508;50.834;3.160;2022-11-20T11:32:11;16.30;54.50
34249;DHT22;20508;50.834;3.160;2022-11-20T11:34:37;16.30;54.40
34249;DHT22;20508;50.834;3.160;2022-11-20T11:37:04;16.30;54.40
34249;DHT22;20508;50.834;3.160;2022-11-20T11:39:33;16.40;54.40
34249;DHT22;20508;50.834;3.160;2022-11-20T11:42:00;16.30;54.30
34249;DHT22;20508;50.834;3.160;2022-11-20T11:44:35;16.40;54.30
34249;DHT22;20508;50.834;3.160;2022-11-20T11:47:30;16.40;54.30
34249;DHT22;20508;50.834;3.160;2022-11-20T11:52:48;16.30;54.40
34249;DHT22;20508;50.834;3.160;2022-11-20T11:55:45;16.30;54.50
34249;DHT22;20508;50.834;3.160;2022-11-20T12:00:56;16.30;54.70
34249;DHT22;20508;50.834;3.160;2022-11-20T12:03:28;16.30;54.70
34249;DHT22;20508;50.834;3.160;2022-11-20T12:05:59;16.30;54.80
34249;DHT22;20508;50.834;3.160;2022-11-20T12:14:00;16.30;54.90
34249;DHT22;20508;50.834;3.160;2022-11-20T12:16:32;16.30;55.00
34249;DHT22;20508;50.834;3.160;2022-11-20T12:19:00;16.20;55.00
34249;DHT22;20508;50.834;3.160;2022-11-20T12:27:40;16.40;54.70
34249;DHT22;20508;50.834;3.160;2022-11-20T12:30:16;16.40;54.90
34249;DHT22;20508;50.834;3.160;2022-11-20T12:39:02;16.40;54.70
34249;DHT22;20508;50.834;3.160;2022-11-20T12:45:08;16.50;54.70
34249;DHT22;20508;50.834;3.160;2022-11-20T12:53:42;16.40;54.70
34249;DHT22;20508;50.834;3.160;2022-11-20T12:56:49;16.40;54.70
34249;DHT22;20508;50.834;3.160;2022-11-20T13:02:33;16.40;54.90
34249;DHT22;20508;50.834;3.160;2022-11-20T13:07:29;16.30;55.10
34249;DHT22;20508;50.834;3.160;2022-11-20T13:09:56;16.40;55.10
34249;DHT22;20508;50.834;3.160;2022-11-20T13:12:33;16.40;55.00
34249;DHT22;20508;50.834;3.160;2022-11-20T13:20:22;16.40;55.00
34249;DHT22;20508;50.834;3.160;2022-11-20T13:22:55;16.40;55.00
34249;DHT22;20508;50.834;3.160;2022-11-20T13:25:29;16.40;55.00
34249;DHT22;20508;50.834;3.160;2022-11-20T13:27:57;16.40;55.10
34249;DHT22;20508;50.834;3.160;2022-11-20T13:30:26;16.40;55.10
34249;DHT22;20508;50.834;3.160;2022-11-20T13:35:33;16.40;55.20
34249;DHT22;20508;50.834;3.160;2022-11-20T13:38:11;16.40;55.20
34249;DHT22;20508;50.834;3.160;2022-11-20T13:40:56;16.40;55.20
34249;DHT22;20508;50.834;3.160;2022-11-20T13:43:38;16.30;55.30
34249;DHT22;20508;50.834;3.160;2022-11-20T13:46:07;16.40;55.30
34249;DHT22;20508;50.834;3.160;2022-11-20T13:48:41;16.30;55.50
34249;DHT22;20508;50.834;3.160;2022-11-20T13:51:29;16.30;55.50
34249;DHT22;20508;50.834;3.160;2022-11-20T14:02:18;16.40;55.50
34249;DHT22;20508;50.834;3.160;2022-11-20T14:04:49;16.40;55.50
34249;DHT22;20508;50.834;3.160;2022-11-20T14:07:18;16.40;55.40
34249;DHT22;20508;50.834;3.160;2022-11-20T14:09:53;16.40;55.40
34249;DHT22;20508;50.834;3.160;2022-11-20T14:12:23;16.40;55.20
34249;DHT22;20508;50.834;3.160;2022-11-20T14:14:54;16.40;55.30
34249;DHT22;20508;50.834;3.160;2022-11-20T14:17:24;16.40;55.30
34249;DHT22;20508;50.834;3.160;2022-11-20T14:19:57;16.40;55.30
34249;DHT22;20508;50.834;3.160;2022-11-20T14:22:27;16.40;55.30
34249;DHT22;20508;50.834;3.160;2022-11-20T14:27:39;16.30;55.50
34249;DHT22;20508;50.834;3.160;2022-11-20T14:30:14;16.30;55.50
34249;DHT22;20508;50.834;3.160;2022-11-20T14:32:41;16.30;56.10
34249;DHT22;20508;50.834;3.160;2022-11-20T14:35:09;16.30;55.50
34249;DHT22;20508;50.834;3.160;2022-11-20T14:37:38;16.30;55.60
34249;DHT22;20508;50.834;3.160;2022-11-20T14:40:28;16.30;55.60
34249;DHT22;20508;50.834;3.160;2022-11-20T14:42:56;16.40;55.50
34249;DHT22;20508;50.834;3.160;2022-11-20T14:45:23;16.30;55.60
34249;DHT22;20508;50.834;3.160;2022-11-20T14:47:52;16.40;55.60
34249;DHT22;20508;50.834;3.160;2022-11-20T14:50:25;16.30;55.50
34249;DHT22;20508;50.834;3.160;2022-11-20T14:52:59;16.40;55.50
34249;DHT22;20508;50.834;3.160;2022-11-20T14:55:35;16.40;55.40
34249;DHT22;20508;50.834;3.160;2022-11-20T14:58:06;16.40;55.40
34249;DHT22;20508;50.834;3.160;2022-11-20T15:00:34;16.40;55.30
34249;DHT22;20508;50.834;3.160;2022-11-20T15:03:00;16.40;55.30
34249;DHT22;20508;50.834;3.160;2022-11-20T15:05:46;16.40;55.40
34249;DHT22;20508;50.834;3.160;2022-11-20T15:08:12;16.50;55.20
34249;DHT22;20508;50.834;3.160;2022-11-20T15:10:39;16.40;55.40
34249;DHT22;20508;50.834;3.160;2022-11-20T15:15:57;16.40;55.40
34249;DHT22;20508;50.834;3.160;2022-11-20T15:18:37;16.40;55.50
34249;DHT22;20508;50.834;3.160;2022-11-20T15:21:10;16.40;55.40
34249;DHT22;20508;50.834;3.160;2022-11-20T15:23:36;16.40;55.50
34249;DHT22;20508;50.834;3.160;2022-11-20T15:26:07;16.40;55.60
34249;DHT22;20508;50.834;3.160;2022-11-20T15:28:45;16.30;55.50
34249;DHT22;20508;50.834;3.160;2022-11-20T15:31:14;16.30;55.50
34249;DHT22;20508;50.834;3.160;2022-11-20T15:33:40;16.30;55.60
34249;DHT22;20508;50.834;3.160;2022-11-20T15:36:06;16.30;55.60
34249;DHT22;20508;50.834;3.160;2022-11-20T15:38:32;16.30;55.60
34249;DHT22;20508;50.834;3.160;2022-11-20T15:40:58;16.40;55.50
34249;DHT22;20508;50.834;3.160;2022-11-20T15:43:24;16.40;55.50
34249;DHT22;20508;50.834;3.160;2022-11-20T15:45:56;16.40;55.50
34249;DHT22;20508;50.834;3.160;2022-11-20T15:48:27;16.40;55.30
34249;DHT22;20508;50.834;3.160;2022-11-20T15:53:34;16.40;55.30
34249;DHT22;20508;50.834;3.160;2022-11-20T15:56:01;16.40;55.40
34249;DHT22;20508;50.834;3.160;2022-11-20T15:58:30;16.40;55.40
34249;DHT22;20508;50.834;3.160;2022-11-20T16:00:56;16.40;55.40
34249;DHT22;20508;50.834;3.160;2022-11-20T16:03:23;16.40;55.50
34249;DHT22;20508;50.834;3.160;2022-11-20T16:05:49;16.30;55.40
34249;DHT22;20508;50.834;3.160;2022-11-20T16:08:15;16.30;55.50
34249;DHT22;20508;50.834;3.160;2022-11-20T16:10:41;16.30;55.50
34249;DHT22;20508;50.834;3.160;2022-11-20T16:13:15;16.30;56.10
34249;DHT22;20508;50.834;3.160;2022-11-20T16:16:02;16.40;55.50
34249;DHT22;20508;50.834;3.160;2022-11-20T16:18:30;16.30;55.60
34249;DHT22;20508;50.834;3.160;2022-11-20T16:20:56;16.30;55.70
34249;DHT22;20508;50.834;3.160;2022-11-20T16:23:23;16.30;55.70
34249;DHT22;20508;50.834;3.160;2022-11-20T16:25:50;16.30;55.70
34249;DHT22;20508;50.834;3.160;2022-11-20T16:28:17;16.30;55.70
34249;DHT22;20508;50.834;3.160;2022-11-20T16:30:43;16.40;55.60
34249;DHT22;20508;50.834;3.160;2022-11-20T16:33:14;16.40;55.50
34249;DHT22;20508;50.834;3.160;2022-11-20T16:35:40;16.50;55.40
34249;DHT22;20508;50.834;3.160;2022-11-20T16:38:06;16.50;55.30
34249;DHT22;20508;50.834;3.160;2022-11-20T16:40:32;16.50;55.30
34249;DHT22;20508;50.834;3.160;2022-11-20T16:43:07;16.50;55.20
34249;DHT22;20508;50.834;3.160;2022-11-20T16:45:33;16.60;55.10
34249;DHT22;20508;50.834;3.160;2022-11-20T16:47:59;16.50;55.10
34249;DHT22;20508;50.834;3.160;2022-11-20T16:50:26;16.50;55.00
34249;DHT22;20508;50.834;3.160;2022-11-20T16:52:52;16.50;55.00
34249;DHT22;20508;50.834;3.160;2022-11-20T16:55:17;16.60;55.00
34249;DHT22;20508;50.834;3.160;2022-11-20T16:57:43;16.50;55.00
34249;DHT22;20508;50.834;3.160;2022-11-20T17:00:09;16.50;55.10
34249;DHT22;20508;50.834;3.160;2022-11-20T17:02:36;16.50;55.10
34249;DHT22;20508;50.834;3.160;2022-11-20T17:05:02;16.50;55.20
34249;DHT22;20508;50.834;3.160;2022-11-20T17:07:28;16.50;55.30
34249;DHT22;20508;50.834;3.160;2022-11-20T17:09:54;16.50;55.40
34249;DHT22;20508;50.834;3.160;2022-11-20T17:12:20;16.40;55.30